Latest Weather Observations for Avalon

IDV60901

Issued at 6:51 pm EDT Thursday 8 December 2016 (issued every 10 minutes, with the page automatically refreshed every 10 minutes)

About weather observations | Map of Melbourne area stations | Latest observations for Melbourne area | Other Formats
Station Details ID: 087113 Name: AVALON AIRPORT Lat: -38.03 Lon: 144.48 Height: 10.6 m
Data from the previous 72 hours. | See also: Recent months at Avalon
Date/Time
EDT
Temp
°C
App
Temp
°C
Dew
Point
°C
Rel
Hum
%
Delta-T
°C
Wind Press
QNH
hPa
Press
MSL
hPa
Rain since
9am
mm
Dir  Spd
km/h
Gust
km/h
Spd
kts
Gust
kts
08/06:30pm 17.2 9.2 10.3 64 3.7 W 43 56 23 30 1001.2 1001.2 0.4
08/06:00pm 17.9 9.4 10.5 62 4.0 WNW 46 59 25 32 1000.3 1000.3 0.4
08/05:30pm 18.0 7.9 9.1 56 4.6 WNW 52 69 28 37 999.8 999.8 0.4
08/05:02pm 19.9 10.7 9.5 51 5.5 WNW 48 69 26 37 999.0 999.0 0.4
08/05:00pm 19.4 10.6 9.6 53 5.2 WNW 46 61 25 33 998.9 998.9 0.4
08/04:30pm 22.1 10.7 6.7 37 7.9 WNW 56 80 30 43 998.1 998.1 0.4
08/04:05pm 22.1 10.5 6.7 37 7.9 WNW 57 76 31 41 998.0 998.0 0.4
08/04:00pm 21.2 7.9 5.9 37 7.7 W 65 80 35 43 998.0 998.0 0.4
08/03:30pm 21.3 9.1 7.5 41 7.1 WNW 61 87 33 47 997.8 997.8 0.4
08/03:00pm 22.9 11.3 6.6 35 8.4 WNW 57 80 31 43 997.6 997.6 0.4
08/02:30pm 22.5 10.4 7.9 39 7.6 WNW 61 87 33 47 997.4 997.4 0.4
08/02:00pm 22.9 9.8 4.9 31 9.0 WNW 63 83 34 45 996.7 996.7 0.4
08/01:30pm 22.0 10.4 6.7 37 7.8 WNW 57 76 31 41 996.6 996.6 0.4
08/01:00pm 21.9 9.1 6.2 36 8.0 WNW 63 82 34 44 996.5 996.5 0.4
08/12:32pm 21.3 9.3 8.2 43 6.8 WNW 61 80 33 43 996.4 996.4 0.4
08/12:30pm 21.1 8.7 8.0 43 6.8 WNW 63 80 34 43 996.3 996.3 0.4
08/12:00pm 20.5 8.8 9.4 49 5.9 W 61 80 33 43 996.8 996.8 0.4
08/11:34am 18.8 9.0 10.1 57 4.6 WNW 52 70 28 38 996.9 996.9 0.4
08/11:30am 18.6 9.5 11.4 63 3.9 WNW 50 67 27 36 997.1 997.1 0.4
08/11:05am 16.2 8.4 11.8 75 2.4 WNW 44 63 24 34 997.1 997.1 0.4
08/11:00am 16.0 7.3 11.4 74 2.5 WNW 48 63 26 34 997.1 997.1 0.4
08/10:32am 15.5 7.7 11.1 75 2.3 WNW 43 63 23 34 997.2 997.2 0.4
08/10:30am 15.5 7.8 11.5 77 2.2 WNW 43 57 23 31 997.2 997.2 0.4
08/10:21am 15.7 8.8 11.5 76 2.3 WNW 39 57 21 31 997.2 997.2 0.4
08/10:12am 15.6 9.6 13.3 86 1.3 WNW 37 50 20 27 996.9 996.9 0.2
08/10:02am 15.1 7.3 13.1 88 1.1 WNW 46 70 25 38 996.8 996.8 0.2
08/10:00am 14.8 6.2 13.0 89 1.0 WNW 50 70 27 38 996.9 996.9 0.2
08/09:43am 19.0 13.3 14.1 73 2.8 NNW 37 76 20 41 996.3 996.3 0.2
08/09:30am 20.1 16.5 17.3 84 1.7 NNW 32 41 17 22 995.0 995.0 0.2
08/09:00am 18.2 15.1 16.5 90 1.0 N 28 37 15 20 995.5 995.5 0.6
08/08:30am 18.6 15.0 16.2 86 1.4 N 30 39 16 21 995.7 995.7 0.6
08/08:00am 18.1 16.4 16.3 89 1.1 N 20 32 11 17 995.9 995.9 0.4
08/07:30am 18.4 14.0 15.6 84 1.6 N 33 46 18 25 996.5 996.5 0.4
08/07:00am 18.8 13.6 15.5 81 2.0 N 37 48 20 26 996.5 996.5 0.2
08/06:30am 18.6 12.7 14.7 78 2.3 N 39 52 21 28 997.4 997.4 0.2
08/06:00am 22.6 14.0 11.7 50 6.2 N 48 67 26 36 998.2 998.2 0.0
08/05:30am 23.3 13.5 8.6 39 7.8 N 50 70 27 38 996.9 996.9 0.0
08/05:05am 24.5 15.1 5.3 29 9.7 N 44 63 24 34 996.7 996.7 0.0
08/05:00am 24.8 14.2 5.1 28 10.0 N 50 67 27 36 996.9 996.9 0.0
08/04:33am 25.0 14.4 5.2 28 10.0 N 50 72 27 39 996.9 996.9 0.0
08/04:30am 24.9 15.1 5.2 28 10.0 N 46 63 25 34 997.1 997.1 0.0
08/04:05am 24.6 16.5 5.4 29 9.7 N 37 56 20 30 997.0 997.0 0.0
08/04:00am 24.6 16.9 5.4 29 9.8 N 35 52 19 28 997.1 997.1 0.0
08/03:42am 24.3 18.1 6.1 31 9.3 N 28 46 15 25 997.3 997.3 0.0
08/03:30am 21.3 18.1 6.8 39 7.4 NE 13 26 7 14 997.6 997.6 0.0
08/03:00am 19.7 16.1 6.8 43 6.5 NE 15 19 8 10 998.3 998.3 0.0
08/02:30am 19.9 16.6 6.6 42 6.7 ENE 13 15 7 8 998.9 998.9 0.0
08/02:00am 18.2 15.3 8.2 52 5.2 NE 13 15 7 8 1000.0 1000.0 0.0
08/01:30am 17.3 14.9 10.0 62 3.9 NE 13 15 7 8 1001.0 1001.0 0.0
08/01:00am 16.9 14.4 11.0 68 3.2 NE 15 19 8 10 1001.9 1001.9 0.0
08/12:30am 16.4 14.3 12.4 77 2.2 ENE 15 20 8 11 1002.7 1002.7 0.0
08/12:00am 16.4 15.5 12.6 78 2.1 ENE 9 13 5 7 1003.6 1003.6 0.0
 
Date/Time
EDT
Temp
°C
App
Temp
°C
Dew
Point
°C
Rel
Hum
%
Delta-T
°C
Wind Press
QNH
hPa
Press
MSL
hPa
Rain since
9am
mm
Dir  Spd
km/h
Gust
km/h
Spd
kts
Gust
kts
07/11:30pm 16.6 17.5 12.9 79 2.1 CALM 0 0 0 0 1004.6 1004.6 0.0
07/11:00pm 15.7 15.3 12.3 80 1.9 NNW 6 9 3 5 1004.9 1004.9 0.0
07/10:30pm 16.6 15.7 12.6 77 2.2 NW 9 9 5 5 1005.5 1005.5 0.0
07/10:00pm 17.7 17.8 13.8 78 2.2 NNE 6 9 3 5 1005.9 1005.9 0.0
07/09:30pm 18.7 17.4 13.6 72 2.9 ENE 13 19 7 10 1006.3 1006.3 0.0
07/09:00pm 18.8 17.9 12.5 67 3.5 ENE 9 15 5 8 1006.7 1006.7 0.0
07/08:30pm 19.9 17.4 12.4 62 4.2 E 17 24 9 13 1007.0 1007.0 0.0
07/08:00pm 20.9 17.3 11.8 56 5.1 ESE 22 28 12 15 1007.2 1007.2 0.0
07/07:30pm 21.7 17.5 11.1 51 5.9 ESE 24 32 13 17 1007.3 1007.3 0.0
07/07:00pm 22.5 18.0 11.3 49 6.3 ESE 26 32 14 17 1007.6 1007.6 0.0
07/06:30pm 22.9 18.2 10.7 46 6.7 ESE 26 33 14 18 1008.0 1008.0 0.0
07/06:00pm 24.0 19.0 8.0 36 8.5 ESE 24 32 13 17 1008.1 1008.1 0.0
07/05:30pm 24.1 18.8 8.5 37 8.3 ESE 26 30 14 16 1008.5 1008.5 0.0
07/05:00pm 24.6 19.5 7.7 34 8.9 ESE 24 28 13 15 1009.2 1009.2 0.0
07/04:30pm 23.9 18.7 7.1 34 8.7 ESE 24 28 13 15 1009.7 1009.7 0.0
07/04:00pm 23.9 19.0 6.7 33 8.9 ESE 22 28 12 15 1010.4 1010.4 0.0
07/03:30pm 23.4 18.5 7.1 35 8.5 ESE 22 30 12 16 1011.0 1011.0 0.0
07/03:00pm 22.6 17.2 6.4 35 8.3 SE 24 32 13 17 1011.5 1011.5 0.0
07/02:30pm 22.4 16.4 5.4 33 8.5 ESE 26 32 14 17 1011.9 1011.9 0.0
07/02:00pm 21.5 15.4 5.0 34 8.1 ESE 26 32 14 17 1012.5 1012.5 0.0
07/01:30pm 21.1 15.1 5.5 36 7.7 ESE 26 33 14 18 1013.1 1013.1 0.0
07/01:00pm 21.2 15.7 5.9 37 7.7 SE 24 30 13 16 1013.6 1013.6 0.0
07/12:30pm 21.5 16.9 6.6 38 7.6 SE 20 32 11 17 1014.0 1014.0 0.0
07/12:00pm 20.7 15.7 8.0 44 6.6 ESE 24 32 13 17 1014.4 1014.4 0.0
07/11:30am 20.6 16.3 9.2 48 6.0 SE 22 32 12 17 1014.6 1014.6 0.0
07/11:00am 20.1 17.2 6.5 41 6.8 ESE 11 17 6 9 1015.0 1015.0 0.0
07/10:30am 19.3 15.9 5.7 41 6.7 NE 13 20 7 11 1015.1 1015.1 0.0
07/10:00am 18.3 15.6 7.4 49 5.5 NE 11 20 6 11 1015.5 1015.5 0.0
07/09:30am 16.9 14.0 8.3 57 4.4 NNE 13 19 7 10 1015.5 1015.5 0.0
07/09:00am 16.0 13.7 9.0 63 3.6 NE 11 17 6 9 1015.4 1015.4 0.0
07/08:30am 14.7 14.1 9.1 69 2.9 N 2 9 1 5 1015.6 1015.6 0.0
07/08:00am 12.5 11.9 8.8 78 1.8 NW 2 6 1 3 1015.6 1015.6 0.0
07/07:30am 11.0 9.5 8.4 84 1.3 WNW 6 7 3 4 1015.6 1015.6 0.0
07/07:00am 9.5 7.7 7.9 90 0.8 NW 7 7 4 4 1015.4 1015.4 0.0
07/06:30am 8.3 6.3 7.1 92 0.6 W 7 9 4 5 1015.4 1015.4 0.0
07/06:00am 7.7 5.6 6.5 92 0.5 W 7 7 4 4 1015.5 1015.5 0.0
07/05:30am 7.0 4.3 5.8 92 0.5 NW 9 9 5 5 1015.2 1015.2 0.0
07/05:00am 7.7 5.5 6.0 89 0.8 WNW 7 9 4 5 1014.7 1014.7 0.0
07/04:30am 8.3 6.4 6.8 90 0.7 WNW 6 7 3 4 1014.4 1014.4 0.0
07/04:00am 7.6 5.5 5.9 89 0.8 WNW 6 7 3 4 1014.3 1014.3 0.0
07/03:30am 7.7 5.5 6.0 89 0.8 NW 7 9 4 5 1014.6 1014.6 0.0
07/03:00am 7.7 5.1 6.2 90 0.7 NNW 9 11 5 6 1014.5 1014.5 0.0
07/02:30am 7.7 4.7 6.0 89 0.8 NNW 11 11 6 6 1015.0 1015.0 0.0
07/02:00am 8.1 5.8 5.7 85 1.1 WNW 7 9 4 5 1015.2 1015.2 0.0
07/01:30am 9.1 6.9 6.4 83 1.2 WNW 7 9 4 5 1015.6 1015.6 0.0
07/01:00am 9.2 6.7 6.5 83 1.2 N 9 11 5 6 1015.7 1015.7 0.0
07/12:30am 10.0 8.0 7.1 82 1.4 N 7 9 4 5 1015.9 1015.9 0.0
07/12:00am 10.3 8.5 7.0 80 1.6 N 6 7 3 4 1016.1 1016.1 0.0
 
Date/Time
EDT
Temp
°C
App
Temp
°C
Dew
Point
°C
Rel
Hum
%
Delta-T
°C
Wind Press
QNH
hPa
Press
MSL
hPa
Rain since
9am
mm
Dir  Spd
km/h
Gust
km/h
Spd
kts
Gust
kts
06/11:30pm 10.5 8.6 6.8 78 1.7 NNE 6 7 3 4 1016.1 1016.1 0.0
06/11:00pm 11.9 9.7 7.8 76 2.0 SSE 9 9 5 5 1016.1 1016.1 0.0
06/10:30pm 11.9 9.6 7.4 74 2.2 SSE 9 11 5 6 1016.3 1016.3 0.0
06/10:00pm 12.0 9.8 7.9 76 2.0 SSE 9 11 5 6 1016.2 1016.2 0.0
06/09:30pm 12.0 9.3 7.5 74 2.2 S 11 15 6 8 1015.8 1015.8 0.0
06/09:00pm 13.1 10.0 7.3 68 2.8 SSE 13 15 7 8 1015.6 1015.6 0.0
06/08:30pm 13.8 10.7 7.1 64 3.3 SSE 13 19 7 10 1015.5 1015.5 0.0
06/08:00pm 15.5 11.1 7.5 59 4.0 S 20 28 11 15 1015.2 1015.2 0.0
06/07:30pm 16.5 11.7 7.4 55 4.5 S 22 32 12 17 1014.9 1014.9 0.0
06/07:00pm 16.9 11.5 7.8 55 4.6 S 26 33 14 18 1014.9 1014.9 0.0
06/06:30pm 17.4 12.1 8.3 55 4.7 S 26 33 14 18 1014.7 1014.7 0.0
06/06:00pm 18.0 12.5 9.1 56 4.6 S 28 35 15 19 1014.3 1014.3 0.0
06/05:30pm 18.6 13.0 8.8 53 5.1 S 28 35 15 19 1013.9 1013.9 0.0
06/05:00pm 19.4 13.8 8.7 50 5.6 S 28 37 15 20 1013.7 1013.7 0.0
06/04:30pm 19.8 14.8 8.2 47 6.0 S 24 35 13 19 1013.6 1013.6 0.0
06/04:00pm 20.1 14.7 7.8 45 6.3 S 26 32 14 17 1013.4 1013.4 0.0
06/03:30pm 20.7 15.7 8.0 44 6.6 S 24 35 13 19 1013.5 1013.5 0.0
06/03:00pm 19.9 16.5 9.2 50 5.7 SE 17 30 9 16 1013.6 1013.6 0.0
06/02:30pm 22.0 16.7 7.0 38 7.7 WSW 24 37 13 20 1013.4 1013.4 0.0
06/02:00pm 21.7 16.4 5.2 34 8.2 WNW 22 39 12 21 1013.5 1013.5 0.0
06/01:30pm 19.9 15.5 4.8 37 7.3 W 17 33 9 18 1013.5 1013.5 0.0
06/01:00pm 20.6 16.3 7.2 42 6.8 W 19 28 10 15 1013.7 1013.7 0.0
06/12:30pm 19.3 15.3 6.8 44 6.3 WSW 17 30 9 16 1014.0 1014.0 0.0
06/12:00pm 18.9 16.9 8.8 52 5.3 WSW 9 19 5 10 1014.2 1014.2 0.0
06/11:30am 17.9 15.5 8.7 55 4.8 W 11 19 6 10 1014.5 1014.5 0.0
06/11:00am 17.4 15.6 9.6 60 4.1 W 9 15 5 8 1014.2 1014.2 0.0
06/10:30am 16.3 14.7 8.8 61 3.8 SSW 7 17 4 9 1014.1 1014.1 0.0
06/10:00am 16.0 14.0 8.7 62 3.7 SW 9 15 5 8 1014.3 1014.3 0.0
06/09:30am 15.7 13.0 8.9 64 3.5 SSW 13 19 7 10 1014.6 1014.6 0.0
06/09:00am 15.4 12.8 9.3 67 3.1 SW 13 17 7 9 1014.7 1014.7 0.2
06/08:30am 14.7 12.0 9.1 69 2.9 SSW 13 15 7 8 1014.2 1014.2 0.2
06/08:00am 14.4 11.3 8.8 69 2.8 SSW 15 20 8 11 1014.0 1014.0 0.2
06/07:30am 14.5 11.7 8.7 68 2.9 SSW 13 15 7 8 1014.0 1014.0 0.2
06/07:00am 14.2 11.8 8.6 69 2.8 SSW 11 15 6 8 1013.8 1013.8 0.2
06/06:30am 14.1 11.3 8.7 70 2.7 SSW 13 15 7 8 1013.5 1013.5 0.2
06/06:00am 14.0 11.7 9.0 72 2.5 SSW 11 13 6 7 1013.4 1013.4 0.2
06/05:30am 14.0 12.1 9.0 72 2.5 SSW 9 11 5 6 1012.7 1012.7 0.2
06/05:00am 13.9 12.0 8.9 72 2.5 SSW 9 9 5 5 1012.6 1012.6 0.2
06/04:30am 13.9 12.3 8.9 72 2.5 SSW 7 9 4 5 1012.1 1012.1 0.2
06/04:00am 13.9 12.3 8.9 72 2.5 S 7 11 4 6 1012.1 1012.1 0.2
06/03:30am 14.0 11.7 9.0 72 2.5 SE 11 13 6 7 1011.6 1011.6 0.2
06/03:00am 14.1 11.8 9.1 72 2.5 SSE 11 15 6 8 1011.9 1011.9 0.2
06/02:30am 14.2 12.3 9.2 72 2.5 SSE 9 11 5 6 1012.7 1012.7 0.2
06/02:00am 14.2 12.3 9.0 71 2.6 SSE 9 13 5 7 1013.0 1013.0 0.2
06/01:30am 14.1 11.4 9.1 72 2.5 S 13 17 7 9 1013.3 1013.3 0.2
06/01:00am 13.7 11.8 9.2 74 2.3 S 9 11 5 6 1013.7 1013.7 0.2
06/12:30am 13.8 10.7 9.0 73 2.4 S 15 17 8 9 1013.6 1013.6 0.2
06/12:00am 14.2 12.0 9.2 72 2.5 SSE 11 13 6 7 1013.8 1013.8 0.2
 
Date/Time
EDT
Temp
°C
App
Temp
°C
Dew
Point
°C
Rel
Hum
%
Delta-T
°C
Wind Press
QNH
hPa
Press
MSL
hPa
Rain since
9am
mm
Dir  Spd
km/h
Gust
km/h
Spd
kts
Gust
kts
05/11:30pm 14.1 11.5 9.3 73 2.5 SE 13 15 7 8 1013.9 1013.9 0.2
05/11:00pm 14.3 12.1 9.3 72 2.6 SE 11 13 6 7 1014.6 1014.6 0.2
05/10:30pm 14.3 11.7 9.3 72 2.6 SSE 13 19 7 10 1015.0 1015.0 0.2
05/10:00pm 14.5 11.5 9.3 71 2.7 SSE 15 20 8 11 1014.9 1014.9 0.2
05/09:30pm 14.8 11.5 9.6 71 2.7 S 17 22 9 12 1014.8 1014.8 0.2
05/09:00pm 15.0 11.8 9.8 71 2.7 S 17 22 9 12 1014.7 1014.7 0.2
05/08:30pm 14.9 10.7 9.7 71 2.7 S 22 30 12 16 1013.7 1013.7 0.2
05/08:00pm 15.3 11.1 9.9 70 2.8 S 22 30 12 16 1013.6 1013.6 0.2
05/07:30pm 15.7 11.1 9.8 68 3.1 SSE 24 30 13 16 1013.8 1013.8 0.2
05/07:00pm 16.3 12.7 10.6 69 3.0 SSE 20 32 11 17 1013.9 1013.9 0.2

Latest Capital City Observations: Canberra | Sydney | Melbourne | Brisbane | Adelaide | Perth | Hobart | Darwin

Other Formats:

Comma delimited format used in spreadsheet applications
http://www.bom.gov.au/fwo/IDV60901/IDV60901.94854.axf

JavaScript Object Notation format (JSON) in row-major order
http://www.bom.gov.au/fwo/IDV60901/IDV60901.94854.json